Time;durP1;ratioP1;P1;durP2;ratioP2;P2;SDS_P1;SDS_P2;PMS_P1;PMS_P2;Temp;Humidity;BMP_temperature;BMP_pressure;BME280_temperature;BME280_humidity;BME280_pressure;Samples;Min_cycle;Max_cycle;Signal;HPM_P1;HPM_P2
2023/12/15 00:02:21;;;;;;;5.55;3.28;;;;;;;4.70;93.41;101822.06;4947134;28;20039;-71
2023/12/15 00:04:46;;;;;;;5.85;2.75;;;;;;;4.73;93.73;101831.34;4948988;28;20636;-70
2023/12/15 00:07:11;;;;;;;6.57;2.72;;;;;;;4.75;93.50;101829.97;4957285;28;20067;-71
2023/12/15 00:09:40;;;;;;;7.20;3.45;;;;;;;4.78;93.79;101831.28;4945964;28;20102;-71
2023/12/15 00:12:05;;;;;;;6.22;3.30;;;;;;;4.79;94.57;101833.66;4937492;29;20039;-71
2023/12/15 00:14:31;;;;;;;7.57;3.05;;;;;;;4.86;94.74;101841.34;4936946;28;20735;-70
2023/12/15 00:16:56;;;;;;;9.65;2.97;;;;;;;4.96;94.58;101841.19;4945771;28;20048;-70
2023/12/15 00:19:21;;;;;;;4.85;2.95;;;;;;;5.02;94.00;101856.03;4961190;28;20122;-71
2023/12/15 00:21:47;;;;;;;8.07;3.95;;;;;;;5.00;94.66;101860.88;4957640;28;20120;-71
2023/12/15 00:24:12;;;;;;;7.60;3.97;;;;;;;5.12;94.63;101856.72;4951478;28;20035;-71
2023/12/15 00:26:38;;;;;;;7.38;3.58;;;;;;;5.11;94.75;101857.78;4947129;28;20031;-72
2023/12/15 00:29:03;;;;;;;4.07;2.85;;;;;;;5.25;94.19;101858.66;4954773;28;20568;-71
2023/12/15 00:31:29;;;;;;;9.20;3.67;;;;;;;5.28;94.18;101863.41;4938637;28;20039;-71
2023/12/15 00:33:55;;;;;;;10.45;2.70;;;;;;;5.26;94.00;101852.25;4950674;28;20500;-71
2023/12/15 00:36:21;;;;;;;7.03;3.90;;;;;;;5.27;94.74;101858.38;4957371;28;20031;-70
2023/12/15 00:38:46;;;;;;;9.07;3.40;;;;;;;5.32;94.78;101861.75;4951849;28;20113;-71
2023/12/15 00:41:11;;;;;;;5.20;3.35;;;;;;;5.29;94.85;101858.88;4962240;28;20027;-71
2023/12/15 00:43:37;;;;;;;7.53;4.20;;;;;;;5.26;95.07;101870.13;4958813;28;20459;-70
2023/12/15 00:46:03;;;;;;;6.57;3.35;;;;;;;5.31;94.83;101867.38;4944883;29;20126;-71
2023/12/15 00:48:28;;;;;;;6.43;4.95;;;;;;;5.35;94.59;101868.41;4938495;29;20031;-71
2023/12/15 00:50:54;;;;;;;7.05;3.85;;;;;;;5.37;95.33;101869.69;4952004;28;20058;-70
2023/12/15 00:53:20;;;;;;;5.03;3.50;;;;;;;5.30;95.62;101869.25;4938800;28;20043;-70
2023/12/15 00:55:46;;;;;;;5.00;3.47;;;;;;;5.26;95.60;101873.59;4946422;28;20051;-71
2023/12/15 00:58:13;;;;;;;6.88;3.15;;;;;;;5.28;96.14;101870.66;4960782;28;20027;-70
2023/12/15 01:00:39;;;;;;;8.77;3.65;;;;;;;5.33;95.37;101870.56;4947098;29;20038;-70
2023/12/15 01:03:04;;;;;;;8.00;3.75;;;;;;;5.37;95.93;101871.56;4958418;28;20095;-71
2023/12/15 01:05:30;;;;;;;7.88;3.72;;;;;;;5.38;95.59;101871.28;4961109;28;20047;-71
2023/12/15 01:07:55;;;;;;;4.15;2.70;;;;;;;5.40;95.55;101874.44;4945676;28;20059;-71
2023/12/15 01:10:20;;;;;;;5.50;3.28;;;;;;;5.49;94.82;101871.94;4944143;29;20121;-71
2023/12/15 01:12:46;;;;;;;6.57;3.95;;;;;;;5.40;95.49;101879.03;4952925;28;20084;-71
2023/12/15 01:15:11;;;;;;;9.52;3.65;;;;;;;5.36;95.97;101876.13;4956181;28;20035;-71
2023/12/15 01:17:37;;;;;;;4.85;3.15;;;;;;;5.39;95.37;101880.88;4949769;28;20040;-71
2023/12/15 01:20:03;;;;;;;12.93;4.40;;;;;;;5.42;95.59;101885.63;4938930;28;20031;-72
2023/12/15 01:22:28;;;;;;;8.70;3.63;;;;;;;5.50;95.81;101885.00;4946229;28;20418;-70
2023/12/15 01:24:53;;;;;;;7.70;3.35;;;;;;;5.47;95.91;101879.44;4966279;28;20064;-70
2023/12/15 01:27:19;;;;;;;12.15;4.20;;;;;;;5.45;96.13;101874.41;4947453;28;20561;-71
2023/12/15 01:29:44;;;;;;;8.13;3.45;;;;;;;5.57;95.21;101873.16;4962859;28;20082;-71
2023/12/15 01:32:10;;;;;;;9.25;3.67;;;;;;;5.46;96.32;101880.50;4943073;28;20066;-71
2023/12/15 01:34:35;;;;;;;3.10;2.13;;;;;;;5.48;96.27;101887.16;4936410;28;20051;-70
2023/12/15 01:37:00;;;;;;;5.55;3.25;;;;;;;5.46;96.49;101889.31;4935356;28;20107;-71
2023/12/15 01:39:26;;;;;;;6.78;3.63;;;;;;;5.43;96.34;101892.59;4936777;28;20031;-71
2023/12/15 01:41:51;;;;;;;5.47;3.13;;;;;;;5.44;96.62;101902.16;4948504;28;21409;-71
2023/12/15 01:44:19;;;;;;;4.90;2.67;;;;;;;5.45;96.52;101897.63;4942064;28;20038;-71
2023/12/15 01:46:45;;;;;;;10.23;4.03;;;;;;;5.55;96.52;101894.00;4937722;28;20177;-70
2023/12/15 01:49:10;;;;;;;7.93;3.53;;;;;;;5.57;96.71;101899.88;4946584;29;20779;-71
2023/12/15 01:51:45;;;;;;;7.00;3.53;;;;;;;5.52;96.80;101902.63;4947198;28;20171;-71
2023/12/15 01:54:10;;;;;;;7.55;3.92;;;;;;;5.57;97.26;101903.34;4955050;28;20106;-71
2023/12/15 01:56:39;;;;;;;7.60;3.80;;;;;;;5.63;96.36;101904.06;4956374;28;20035;-71
2023/12/15 01:59:04;;;;;;;9.57;3.92;;;;;;;5.58;96.41;101904.91;4942650;28;20062;-72
2023/12/15 02:01:29;;;;;;;7.53;3.72;;;;;;;5.51;97.21;101901.81;4934655;28;20118;-71
2023/12/15 02:03:55;;;;;;;3.03;1.92;;;;;;;5.52;97.75;101899.94;4954001;28;20031;-71
2023/12/15 02:06:21;;;;;;;5.90;2.88;;;;;;;5.60;96.38;101893.94;4934692;28;20042;-71
2023/12/15 02:08:47;;;;;;;4.35;2.65;;;;;;;5.49;96.81;101896.78;4946422;28;20126;-71
2023/12/15 02:11:13;;;;;;;6.47;3.60;;;;;;;5.48;97.61;101892.50;4954836;28;20039;-71
2023/12/15 02:13:38;;;;;;;5.50;2.53;;;;;;;5.48;97.62;101895.16;4934944;29;20105;-71
2023/12/15 02:16:04;;;;;;;5.90;3.13;;;;;;;5.61;97.04;101890.19;4934337;28;20414;-71
2023/12/15 02:18:30;;;;;;;5.75;3.42;;;;;;;5.67;96.78;101889.81;4942396;28;20046;-71
2023/12/15 02:20:56;;;;;;;3.13;2.83;;;;;;;5.62;97.62;101892.56;4944494;28;20027;-71
2023/12/15 02:23:24;;;;;;;6.65;3.35;;;;;;;5.64;96.82;101898.41;4960747;28;20019;-70
2023/12/15 02:25:49;;;;;;;9.73;4.22;;;;;;;5.69;97.12;101898.31;4945604;28;20046;-70
2023/12/15 02:28:15;;;;;;;7.25;4.22;;;;;;;5.69;97.19;101897.53;4960088;28;20035;-71
2023/12/15 02:30:40;;;;;;;6.35;3.85;;;;;;;5.71;97.43;101896.16;4957689;28;20039;-70
2023/12/15 02:33:11;;;;;;;4.43;2.53;;;;;;;5.71;97.40;101906.06;4950009;28;20047;-70
2023/12/15 02:35:36;;;;;;;6.88;2.97;;;;;;;5.69;98.48;101905.56;4934979;29;20035;-71
2023/12/15 02:38:07;;;;;;;5.80;3.05;;;;;;;5.68;97.98;101909.31;4936704;28;20042;-70
2023/12/15 02:40:32;;;;;;;7.45;2.30;;;;;;;5.71;97.77;101898.81;4943311;28;20043;-71
2023/12/15 02:43:01;;;;;;;5.20;2.45;;;;;;;5.80;97.80;101906.97;4941152;29;20541;-71
2023/12/15 02:45:26;;;;;;;6.95;2.78;;;;;;;5.75;97.94;101913.19;4948942;28;20402;-71
2023/12/15 02:47:51;;;;;;;6.32;3.40;;;;;;;5.74;97.83;101908.16;4941944;28;20047;-71
2023/12/15 02:50:17;;;;;;;7.45;3.42;;;;;;;5.74;98.31;101906.28;4934164;28;20051;-71
2023/12/15 02:52:42;;;;;;;5.45;2.85;;;;;;;5.73;98.60;101906.56;4946212;29;20295;-71
2023/12/15 02:55:08;;;;;;;6.68;3.97;;;;;;;5.85;98.62;101918.41;4947388;28;20110;-70
2023/12/15 02:57:35;;;;;;;5.80;3.10;;;;;;;5.95;97.76;101917.47;4945799;28;20031;-70
2023/12/15 03:00:00;;;;;;;4.45;2.83;;;;;;;6.01;97.15;101902.94;4936432;29;20096;-71
2023/12/15 03:02:26;;;;;;;5.00;2.47;;;;;;;5.97;96.79;101897.38;4941025;28;20589;-71
2023/12/15 03:04:51;;;;;;;5.03;2.63;;;;;;;5.92;97.91;101904.69;4946798;28;20517;-71
2023/12/15 03:07:17;;;;;;;8.52;3.13;;;;;;;5.84;97.73;101902.69;4941887;28;20125;-70
2023/12/15 03:09:45;;;;;;;5.93;3.38;;;;;;;5.81;98.22;101896.00;4961638;28;20035;-71
2023/12/15 03:12:13;;;;;;;6.13;3.40;;;;;;;5.85;98.26;101905.06;4961348;28;20046;-70
2023/12/15 03:14:38;;;;;;;6.75;2.92;;;;;;;5.90;98.70;101913.00;4951167;28;20036;-71
2023/12/15 03:17:04;;;;;;;8.55;3.88;;;;;;;5.95;97.95;101909.44;4937052;28;20047;-70
2023/12/15 03:19:30;;;;;;;5.03;3.10;;;;;;;6.01;97.65;101909.06;4937501;28;20114;-71
2023/12/15 03:21:55;;;;;;;7.80;3.80;;;;;;;6.01;97.74;101901.06;4954200;28;20146;-72
2023/12/15 03:24:20;;;;;;;8.75;3.58;;;;;;;5.94;97.71;101899.84;4959051;28;20043;-71
2023/12/15 03:26:46;;;;;;;9.05;3.97;;;;;;;6.02;97.68;101905.31;4963100;28;20043;-70
2023/12/15 03:29:11;;;;;;;9.60;4.22;;;;;;;5.95;98.18;101920.94;4943054;28;20067;-70
2023/12/15 03:31:37;;;;;;;6.75;3.15;;;;;;;5.95;98.25;101917.47;4939478;28;20035;-70
2023/12/15 03:34:03;;;;;;;6.03;3.40;;;;;;;5.94;98.72;101915.88;4945944;28;20415;-70
2023/12/15 03:36:28;;;;;;;4.85;2.42;;;;;;;5.94;98.94;101910.53;4944366;28;21269;-71
2023/12/15 03:38:53;;;;;;;5.57;3.05;;;;;;;5.93;98.25;101912.41;4947115;28;20102;-69
2023/12/15 03:41:19;;;;;;;8.52;3.22;;;;;;;5.93;98.19;101916.97;4947736;28;20066;-70
2023/12/15 03:43:44;;;;;;;3.75;2.70;;;;;;;5.87;98.55;101910.09;4936948;28;20054;-70
2023/12/15 03:46:11;;;;;;;8.32;3.83;;;;;;;6.00;98.40;101904.78;4943044;28;20035;-70
2023/12/15 03:48:36;;;;;;;8.50;3.20;;;;;;;6.04;97.87;101913.06;4938058;28;20047;-72
2023/12/15 03:51:02;;;;;;;5.13;3.30;;;;;;;6.04;97.69;101915.72;4946027;29;20067;-70
2023/12/15 03:53:27;;;;;;;4.78;2.63;;;;;;;6.13;97.47;101908.59;4947134;28;20035;-70
2023/12/15 03:55:53;;;;;;;6.05;3.70;;;;;;;6.08;98.33;101922.03;4955752;28;20039;-70
2023/12/15 03:58:18;;;;;;;8.68;3.60;;;;;;;6.03;97.92;101914.13;4934686;28;20541;-70
2023/12/15 04:00:44;;;;;;;8.52;2.88;;;;;;;6.06;98.69;101908.19;4956753;28;20066;-72
2023/12/15 04:03:09;;;;;;;3.90;2.15;;;;;;;6.05;97.91;101912.75;4928648;28;20410;-70
2023/12/15 04:05:35;;;;;;;6.70;4.07;;;;;;;6.11;97.92;101906.25;4938520;28;20031;-70
2023/12/15 04:08:00;;;;;;;11.60;2.65;;;;;;;6.14;98.32;101908.31;4962058;28;20114;-70
2023/12/15 04:10:26;;;;;;;4.53;3.10;;;;;;;6.15;98.41;101901.88;4944882;28;20027;-70
2023/12/15 04:12:51;;;;;;;10.40;4.18;;;;;;;6.09;98.47;101912.94;4941029;28;20043;-71
2023/12/15 04:15:19;;;;;;;5.97;2.88;;;;;;;6.02;98.43;101910.66;4943426;28;20040;-70
2023/12/15 04:17:44;;;;;;;5.78;2.45;;;;;;;6.12;99.05;101904.34;4938299;29;20462;-70
2023/12/15 04:20:10;;;;;;;6.88;3.92;;;;;;;6.12;98.55;101899.00;4942387;28;20035;-70
2023/12/15 04:22:38;;;;;;;6.90;3.72;;;;;;;6.17;98.21;101909.63;4969004;28;20121;-70
2023/12/15 04:25:04;;;;;;;6.57;3.40;;;;;;;6.17;98.13;101907.75;4948251;28;20039;-70
2023/12/15 04:27:30;;;;;;;5.93;3.17;;;;;;;6.26;97.92;101908.63;4958153;28;20086;-70
2023/12/15 04:29:56;;;;;;;6.38;3.05;;;;;;;6.29;97.98;101912.63;4957334;28;20039;-71
2023/12/15 04:32:21;;;;;;;8.07;3.80;;;;;;;6.24;98.05;101910.00;4938772;28;20039;-70
2023/12/15 04:34:47;;;;;;;6.28;3.65;;;;;;;6.25;98.39;101925.00;4957016;28;20059;-70
2023/12/15 04:37:12;;;;;;;11.07;3.88;;;;;;;6.26;97.93;101930.03;4964969;28;20086;-70
2023/12/15 04:39:38;;;;;;;6.65;3.47;;;;;;;6.24;98.08;101931.41;4965025;28;20139;-70
2023/12/15 04:42:03;;;;;;;5.18;2.55;;;;;;;6.22;98.44;101938.94;4946498;29;20043;-70
2023/12/15 04:44:29;;;;;;;6.53;3.08;;;;;;;6.23;99.06;101943.22;4944931;28;20066;-70
2023/12/15 04:46:55;;;;;;;7.93;4.10;;;;;;;6.23;99.16;101943.97;4937252;28;20130;-70
2023/12/15 04:49:22;;;;;;;6.80;3.42;;;;;;;6.30;99.04;101946.28;4937346;28;20054;-70
2023/12/15 04:51:47;;;;;;;5.28;3.38;;;;;;;6.52;98.37;101954.47;4935975;29;20039;-70
2023/12/15 04:54:13;;;;;;;4.65;1.92;;;;;;;6.46;98.41;101958.31;4942610;28;20038;-70
2023/12/15 04:56:38;;;;;;;6.30;3.67;;;;;;;6.45;97.62;101967.41;4947728;29;20059;-71
2023/12/15 04:59:04;;;;;;;5.47;2.63;;;;;;;6.39;98.72;101971.25;4962741;28;20101;-70
2023/12/15 05:01:29;;;;;;;8.32;2.88;;;;;;;6.35;99.04;101972.94;4952677;28;20057;-70
2023/12/15 05:03:54;;;;;;;8.18;2.85;;;;;;;6.43;99.19;101982.19;4949642;28;20094;-71
2023/12/15 05:06:23;;;;;;;11.32;4.07;;;;;;;6.46;98.79;101973.56;4941859;28;20030;-70
2023/12/15 05:08:52;;;;;;;8.32;3.75;;;;;;;6.46;99.13;101977.03;4942054;28;20020;-70
2023/12/15 05:11:19;;;;;;;8.90;3.45;;;;;;;6.47;98.78;101973.28;4935601;28;20117;-70
2023/12/15 05:13:44;;;;;;;10.18;3.20;;;;;;;6.46;99.56;101986.94;4940765;28;20090;-70
2023/12/15 05:16:10;;;;;;;6.97;3.35;;;;;;;6.45;99.33;101986.16;4959172;28;20044;-70
2023/12/15 05:18:35;;;;;;;10.98;3.47;;;;;;;6.51;99.62;101981.50;4948175;28;20057;-71
2023/12/15 05:21:01;;;;;;;7.35;3.47;;;;;;;6.49;99.81;101987.16;4954346;28;20039;-70
2023/12/15 05:23:32;;;;;;;5.07;3.33;;;;;;;6.49;99.91;101992.50;4945278;28;20506;-70
2023/12/15 05:25:57;;;;;;;7.25;3.70;;;;;;;6.64;98.81;101996.81;4945663;28;20058;-70
2023/12/15 05:28:23;;;;;;;7.38;3.63;;;;;;;6.70;99.01;101996.41;4940689;28;20073;-71
2023/12/15 05:30:49;;;;;;;9.50;3.25;;;;;;;6.64;99.02;101994.13;4935494;28;20030;-71
2023/12/15 05:33:14;;;;;;;5.28;3.10;;;;;;;6.53;99.27;101998.84;4933300;28;20083;-71
2023/12/15 05:35:40;;;;;;;6.88;3.60;;;;;;;6.60;99.99;101999.25;4933990;28;20031;-70
2023/12/15 05:38:05;;;;;;;6.55;2.83;;;;;;;6.58;100.00;102017.47;4941076;28;20070;-71
2023/12/15 05:40:30;;;;;;;5.75;3.00;;;;;;;6.59;100.00;102020.97;4955583;28;20063;-70
2023/12/15 05:42:59;;;;;;;4.30;2.65;;;;;;;6.60;99.61;102012.63;4946473;28;20113;-71
2023/12/15 05:45:24;;;;;;;7.90;3.00;;;;;;;6.55;100.00;102028.78;4939329;28;20039;-70
2023/12/15 05:47:50;;;;;;;12.88;3.30;;;;;;;6.55;100.00;102018.09;4943232;29;20034;-70
2023/12/15 05:50:16;;;;;;;8.55;3.03;;;;;;;6.56;100.00;102030.38;4932164;28;20094;-70
2023/12/15 05:52:41;;;;;;;6.78;2.95;;;;;;;6.66;100.00;102027.50;4948018;28;20038;-70
2023/12/15 05:55:07;;;;;;;8.52;3.53;;;;;;;6.67;99.91;102022.97;4948087;28;20119;-71
2023/12/15 05:57:32;;;;;;;7.53;2.92;;;;;;;6.66;100.00;102027.50;4937421;28;20043;-70
2023/12/15 05:59:58;;;;;;;10.25;2.45;;;;;;;6.70;100.00;102031.19;4965094;28;20042;-70
2023/12/15 06:02:23;;;;;;;8.25;2.40;;;;;;;6.74;100.00;102026.84;4948899;29;20049;-71
2023/12/15 06:04:49;;;;;;;3.42;2.10;;;;;;;6.73;100.00;102025.28;4950314;28;20045;-71
2023/12/15 06:07:15;;;;;;;4.43;2.83;;;;;;;6.73;100.00;102035.97;4946976;29;20035;-71
2023/12/15 06:09:42;;;;;;;12.05;3.47;;;;;;;6.77;100.00;102026.28;4967716;28;20037;-71
2023/12/15 06:12:09;;;;;;;6.97;3.10;;;;;;;6.69;100.00;102031.50;4948803;29;20047;-70
2023/12/15 06:14:38;;;;;;;5.63;3.33;;;;;;;6.83;100.00;102029.66;4952967;28;20051;-70
2023/12/15 06:17:06;;;;;;;6.45;2.72;;;;;;;6.78;100.00;102025.16;4948586;28;20117;-71
2023/12/15 06:19:33;;;;;;;11.65;3.85;;;;;;;6.88;100.00;102021.50;4933381;28;20041;-71
2023/12/15 06:21:58;;;;;;;6.25;3.10;;;;;;;7.02;99.63;102016.97;4934511;28;20651;-70
2023/12/15 06:24:24;;;;;;;9.18;3.20;;;;;;;6.90;99.35;102013.97;4933683;28;20043;-70
2023/12/15 06:26:49;;;;;;;11.25;3.90;;;;;;;6.86;100.00;102010.31;4954005;28;20046;-70
2023/12/15 06:29:14;;;;;;;4.63;2.38;;;;;;;6.95;99.61;102022.72;4932945;28;20497;-71
2023/12/15 06:31:45;;;;;;;7.00;2.95;;;;;;;6.99;99.63;102037.09;4934717;28;20043;-71
2023/12/15 06:34:11;;;;;;;8.32;2.63;;;;;;;6.90;100.00;102041.56;4934732;28;20039;-72
2023/12/15 06:36:36;;;;;;;10.57;3.35;;;;;;;6.92;100.00;102039.38;4939421;29;21430;-71
2023/12/15 06:39:02;;;;;;;4.20;2.55;;;;;;;6.91;100.00;102037.78;4934282;29;20734;-71
2023/12/15 06:41:27;;;;;;;5.43;2.83;;;;;;;6.87;100.00;102036.78;4940013;28;20043;-70
2023/12/15 06:43:52;;;;;;;6.32;2.78;;;;;;;6.89;100.00;102039.19;4935114;28;20700;-70
2023/12/15 06:46:18;;;;;;;6.43;2.90;;;;;;;6.93;100.00;102035.59;4939042;28;20133;-70
2023/12/15 06:48:47;;;;;;;6.05;2.78;;;;;;;6.97;100.00;102049.97;4934149;29;20035;-70
2023/12/15 06:51:12;;;;;;;3.80;2.20;;;;;;;6.95;100.00;102054.06;4935894;28;20043;-71
2023/12/15 06:53:38;;;;;;;8.95;4.10;;;;;;;6.94;100.00;102041.75;4946668;28;20069;-72
2023/12/15 06:56:03;;;;;;;5.32;2.90;;;;;;;7.00;100.00;102052.09;4938840;28;20039;-71
2023/12/15 06:58:32;;;;;;;8.65;2.92;;;;;;;7.03;100.00;102037.28;4924841;29;20426;-73
2023/12/15 07:01:00;;;;;;;6.30;3.38;;;;;;;7.10;100.00;102043.06;4944057;28;20196;-70
2023/12/15 07:03:25;;;;;;;6.85;3.47;;;;;;;7.11;100.00;102041.97;4952258;28;20075;-70
2023/12/15 07:05:51;;;;;;;7.55;3.30;;;;;;;7.07;100.00;102052.47;4959116;28;20039;-70
2023/12/15 07:08:16;;;;;;;7.32;2.92;;;;;;;7.07;100.00;102043.66;4936354;28;20058;-70
2023/12/15 07:10:42;;;;;;;10.45;4.22;;;;;;;7.05;100.00;102049.31;4950847;28;20055;-71
2023/12/15 07:13:08;;;;;;;7.32;3.67;;;;;;;7.03;100.00;102054.16;4944884;28;20031;-70
2023/12/15 07:15:33;;;;;;;11.43;3.72;;;;;;;7.08;100.00;102053.28;4941953;28;20035;-70
2023/12/15 07:17:59;;;;;;;7.88;4.32;;;;;;;7.09;100.00;102054.84;4958076;28;20051;-70
2023/12/15 07:20:25;;;;;;;11.05;3.60;;;;;;;7.11;100.00;102064.19;4940899;29;20074;-70
2023/12/15 07:22:51;;;;;;;11.93;4.00;;;;;;;7.15;100.00;102065.19;4963701;28;20030;-70
2023/12/15 07:25:17;;;;;;;11.95;3.05;;;;;;;7.23;100.00;102061.03;4941683;29;20552;-70
2023/12/15 07:27:43;;;;;;;9.30;2.83;;;;;;;7.27;100.00;102062.81;4943795;28;20047;-71
2023/12/15 07:30:08;;;;;;;8.52;3.75;;;;;;;7.26;100.00;102074.63;4965382;28;20402;-70
2023/12/15 07:32:36;;;;;;;6.28;2.92;;;;;;;7.28;100.00;102083.16;4945367;28;20417;-70
2023/12/15 07:35:03;;;;;;;8.45;3.90;;;;;;;7.32;100.00;102093.28;4949592;28;20109;-70
2023/12/15 07:37:29;;;;;;;9.02;4.20;;;;;;;7.22;100.00;102092.38;4947762;29;20039;-70
2023/12/15 07:39:55;;;;;;;5.95;3.78;;;;;;;7.27;100.00;102083.44;4944838;29;20046;-70
2023/12/15 07:42:20;;;;;;;4.15;2.35;;;;;;;7.27;100.00;102094.16;4944405;28;20174;-70
2023/12/15 07:44:46;;;;;;;9.10;3.33;;;;;;;7.20;100.00;102094.53;4942966;29;20042;-70
2023/12/15 07:47:11;;;;;;;12.90;3.67;;;;;;;7.28;100.00;102106.47;4944914;28;20023;-72
2023/12/15 07:49:36;;;;;;;8.65;3.65;;;;;;;7.27;100.00;102102.22;4949506;28;20031;-70
2023/12/15 07:52:02;;;;;;;6.80;3.08;;;;;;;7.29;100.00;102113.41;4937380;28;20038;-70
2023/12/15 07:54:29;;;;;;;9.32;3.53;;;;;;;7.30;100.00;102118.47;4955820;28;20562;-70
2023/12/15 07:56:55;;;;;;;7.05;3.15;;;;;;;7.27;100.00;102111.03;4937227;28;20419;-70
2023/12/15 07:59:20;;;;;;;8.73;3.42;;;;;;;7.32;100.00;102120.09;4935938;28;20479;-70
2023/12/15 08:01:50;;;;;;;7.90;3.13;;;;;;;7.35;100.00;102122.16;4941290;28;20066;-70
2023/12/15 08:04:17;;;;;;;10.75;3.92;;;;;;;7.30;100.00;102126.50;4936927;29;20051;-71
2023/12/15 08:06:42;;;;;;;14.38;5.45;;;;;;;7.37;100.00;102130.69;4952424;28;20548;-70
2023/12/15 08:09:08;;;;;;;8.13;3.33;;;;;;;7.32;100.00;102128.13;4942406;28;20043;-70
2023/12/15 08:11:33;;;;;;;12.60;4.10;;;;;;;7.36;100.00;102140.59;4937376;28;20061;-70
2023/12/15 08:13:59;;;;;;;4.40;2.85;;;;;;;7.42;100.00;102144.78;4937502;29;20066;-70
2023/12/15 08:16:24;;;;;;;12.25;3.20;;;;;;;7.42;100.00;102139.44;4943522;28;20023;-71
2023/12/15 08:18:50;;;;;;;8.48;3.65;;;;;;;7.43;100.00;102135.69;4940677;28;20469;-70
2023/12/15 08:21:15;;;;;;;12.23;4.88;;;;;;;7.45;100.00;102130.00;4939345;29;20085;-71
2023/12/15 08:23:41;;;;;;;9.15;2.72;;;;;;;7.48;100.00;102129.41;4936789;28;20134;-70
2023/12/15 08:26:07;;;;;;;10.35;3.83;;;;;;;7.51;100.00;102124.25;4958002;28;20131;-70
2023/12/15 08:28:32;;;;;;;11.60;4.00;;;;;;;7.49;100.00;102123.75;4955405;28;20412;-70
2023/12/15 08:30:58;;;;;;;16.13;4.63;;;;;;;7.59;100.00;102134.28;4937378;28;20525;-71
2023/12/15 08:33:27;;;;;;;9.20;3.45;;;;;;;7.61;100.00;102131.28;4938264;28;20031;-71
2023/12/15 08:35:53;;;;;;;11.02;4.45;;;;;;;7.56;100.00;102139.44;4934682;29;20125;-71
2023/12/15 08:38:18;;;;;;;13.65;3.58;;;;;;;7.58;100.00;102145.31;4949660;28;20118;-70
2023/12/15 08:40:43;;;;;;;16.05;4.07;;;;;;;7.66;100.00;102144.59;4963143;28;20130;-71
2023/12/15 08:43:09;;;;;;;9.32;3.40;;;;;;;7.68;100.00;102156.63;4955061;28;20126;-70
2023/12/15 08:45:34;;;;;;;5.00;3.33;;;;;;;7.65;100.00;102172.50;4947959;28;20077;-70
2023/12/15 08:48:00;;;;;;;8.65;3.33;;;;;;;7.72;100.00;102172.91;4948111;28;20024;-70
2023/12/15 08:50:25;;;;;;;6.22;2.95;;;;;;;7.72;100.00;102175.59;4958604;28;20581;-70
2023/12/15 08:52:50;;;;;;;10.98;4.25;;;;;;;7.77;100.00;102187.00;4964056;28;20421;-70
2023/12/15 08:55:16;;;;;;;14.05;4.50;;;;;;;7.79;100.00;102192.06;4948607;28;20027;-70
2023/12/15 08:57:41;;;;;;;18.35;3.83;;;;;;;7.81;100.00;102195.25;4964894;28;21309;-70
2023/12/15 09:00:07;;;;;;;9.02;3.67;;;;;;;7.81;100.00;102192.56;4947485;28;20434;-70
2023/12/15 09:02:33;;;;;;;16.70;4.72;;;;;;;7.83;100.00;102203.78;4951013;28;20031;-70
2023/12/15 09:05:00;;;;;;;19.13;6.80;;;;;;;7.86;100.00;102203.19;4950454;28;20035;-70
2023/12/15 09:07:26;;;;;;;8.98;5.28;;;;;;;7.87;100.00;102194.06;4947424;29;20039;-71
2023/12/15 09:09:52;;;;;;;11.98;3.70;;;;;;;7.85;100.00;102199.72;4967943;28;20054;-70
2023/12/15 09:12:17;;;;;;;8.10;4.10;;;;;;;7.90;100.00;102209.53;4974654;28;20027;-70
2023/12/15 09:14:42;;;;;;;12.88;4.57;;;;;;;7.92;100.00;102207.34;4953814;28;20038;-70
2023/12/15 09:17:12;;;;;;;10.77;3.47;;;;;;;7.90;100.00;102212.22;4948762;29;20031;-70
2023/12/15 09:19:40;;;;;;;12.10;4.90;;;;;;;7.93;100.00;102222.38;4948668;28;20035;-70
2023/12/15 09:22:06;;;;;;;12.55;5.47;;;;;;;7.93;100.00;102223.19;4948461;29;20031;-70
2023/12/15 09:24:33;;;;;;;13.50;5.15;;;;;;;7.90;100.00;102226.44;4965585;28;20039;-70
2023/12/15 09:26:59;;;;;;;15.73;5.50;;;;;;;7.97;100.00;102226.06;4939423;29;20039;-70
2023/12/15 09:29:25;;;;;;;19.80;4.88;;;;;;;8.00;100.00;102228.13;4948814;28;20124;-70
2023/12/15 09:31:50;;;;;;;16.13;5.43;;;;;;;8.02;100.00;102244.72;4944138;28;20039;-71
2023/12/15 09:34:17;;;;;;;11.35;3.88;;;;;;;8.07;100.00;102247.31;4952573;28;20505;-70
2023/12/15 09:36:42;;;;;;;17.83;5.20;;;;;;;8.08;100.00;102243.53;4950559;28;20046;-70
2023/12/15 09:39:08;;;;;;;7.78;3.80;;;;;;;8.08;100.00;102244.34;4950206;28;20051;-70
2023/12/15 09:41:35;;;;;;;13.43;4.13;;;;;;;8.12;100.00;102248.00;4947334;28;20078;-70
2023/12/15 09:44:01;;;;;;;11.35;3.67;;;;;;;8.18;100.00;102246.81;4937566;29;20062;-70
2023/12/15 09:46:27;;;;;;;8.82;4.30;;;;;;;8.18;100.00;102259.44;4965263;28;20035;-70
2023/12/15 09:48:54;;;;;;;7.45;3.38;;;;;;;8.18;100.00;102272.84;4950537;28;20046;-70
2023/12/15 09:51:25;;;;;;;10.13;3.85;;;;;;;8.15;100.00;102273.44;4949808;28;20039;-70
2023/12/15 09:53:51;;;;;;;8.45;3.88;;;;;;;8.15;100.00;102281.47;4965791;28;20038;-71
2023/12/15 09:56:18;;;;;;;21.02;3.60;;;;;;;8.20;100.00;102286.78;4950328;28;20526;-70
2023/12/15 09:58:43;;;;;;;5.45;2.65;;;;;;;8.22;100.00;102281.91;4947594;28;20031;-70
2023/12/15 10:01:12;;;;;;;8.88;3.58;;;;;;;8.22;100.00;102281.91;4946951;28;20039;-70
2023/12/15 10:03:39;;;;;;;6.75;2.63;;;;;;;8.21;100.00;102283.78;4946956;28;20097;-70
2023/12/15 10:06:07;;;;;;;6.20;3.03;;;;;;;8.22;100.00;102279.22;4948041;28;20031;-71
2023/12/15 10:08:43;;;;;;;11.63;3.13;;;;;;;8.29;100.00;102290.38;4946780;29;20406;-71
2023/12/15 10:11:11;;;;;;;7.38;2.92;;;;;;;8.38;100.00;102291.25;4963543;28;20035;-70
2023/12/15 10:13:40;;;;;;;6.43;3.78;;;;;;;8.42;100.00;102292.25;4945938;28;20110;-70
2023/12/15 10:16:06;;;;;;;5.22;2.53;;;;;;;8.41;100.00;102282.63;4945322;29;20039;-70
2023/12/15 10:18:32;;;;;;;9.25;3.47;;;;;;;8.43;100.00;102283.13;4945970;28;20124;-71
2023/12/15 10:20:57;;;;;;;6.00;3.38;;;;;;;8.46;100.00;102287.88;4949170;28;20561;-70
2023/12/15 10:23:28;;;;;;;8.88;3.90;;;;;;;8.50;100.00;102294.22;4947191;28;20122;-71
2023/12/15 10:25:55;;;;;;;8.68;4.15;;;;;;;8.40;100.00;102291.75;4948887;28;20758;-70
2023/12/15 10:28:22;;;;;;;8.05;2.78;;;;;;;8.56;100.00;102287.66;4945588;28;20066;-70
2023/12/15 10:30:51;;;;;;;8.48;3.65;;;;;;;8.65;100.00;102291.22;4950035;28;20138;-71
2023/12/15 10:33:18;;;;;;;11.23;3.70;;;;;;;8.62;100.00;102291.84;4966153;28;20047;-71
2023/12/15 10:35:48;;;;;;;11.45;4.25;;;;;;;8.67;100.00;102297.09;4952835;28;20144;-70
2023/12/15 10:38:16;;;;;;;13.80;4.13;;;;;;;8.73;100.00;102289.75;4968677;28;20122;-70
2023/12/15 10:40:42;;;;;;;8.77;4.35;;;;;;;8.75;100.00;102299.06;4956470;28;20035;-70
2023/12/15 10:43:10;;;;;;;16.77;4.75;;;;;;;8.65;100.00;102295.81;4952320;28;20022;-70
2023/12/15 10:45:36;;;;;;;11.77;3.38;;;;;;;8.66;100.00;102300.09;4960995;28;20036;-70
2023/12/15 10:48:02;;;;;;;11.38;3.85;;;;;;;8.71;100.00;102303.44;4952990;29;20035;-70
2023/12/15 10:50:28;;;;;;;7.97;3.35;;;;;;;8.71;100.00;102303.44;4954746;28;20078;-70
2023/12/15 10:52:55;;;;;;;9.77;4.13;;;;;;;8.77;100.00;102307.63;4952465;28;20035;-70
2023/12/15 10:55:26;;;;;;;6.20;3.92;;;;;;;8.85;100.00;102301.53;4968605;28;20040;-71
2023/12/15 10:57:58;;;;;;;8.82;3.55;;;;;;;8.83;100.00;102298.34;4954211;28;20055;-70
2023/12/15 11:00:24;;;;;;;10.73;4.60;;;;;;;8.84;100.00;102308.03;4951995;28;20040;-70
2023/12/15 11:02:50;;;;;;;7.72;3.90;;;;;;;8.88;100.00;102306.28;4950263;29;20023;-70
2023/12/15 11:05:16;;;;;;;11.38;4.28;;;;;;;8.93;100.00;102302.72;4951566;28;20395;-70
2023/12/15 11:07:44;;;;;;;13.18;4.18;;;;;;;8.94;100.00;102299.72;4948248;29;20046;-71
2023/12/15 11:10:12;;;;;;;16.60;4.57;;;;;;;8.92;100.00;102301.13;4967401;28;20047;-70
2023/12/15 11:12:39;;;;;;;9.85;4.35;;;;;;;9.02;100.00;102311.63;4967686;28;20043;-70
2023/12/15 11:15:17;;;;;;;11.05;4.07;;;;;;;9.01;100.00;102305.50;4966354;28;20036;-70
2023/12/15 11:17:47;;;;;;;11.57;3.63;;;;;;;9.06;100.00;102299.19;4961433;28;20040;-71
2023/12/15 11:20:33;;;;;;;10.32;4.50;;;;;;;9.07;100.00;102295.41;4949790;28;20522;-71
2023/12/15 11:23:06;;;;;;;7.95;3.30;;;;;;;9.10;100.00;102292.91;4953050;28;20051;-70